Skiros, Greece
Current Conditions -  °F | °C
As of 9:50 PM on Tuesday 21 Oct 2014 (Local Time) from LGSY Reporting Station
Clear Clear  
Wind Chill: 66°   Ceiling: Unl
Heat Index: 66°   Visibility: 6mi
Dew Point: 55°   Wind: 14mph
Humidity: 68%   Direction: 180°S
Pressure: 29.8"   Gusts: NA
Location:  38.9°N, 24.56°E
Report Text: LGSY 211850Z 18012KT CAVOK 19/13 Q1009 BLU
Loading
Personal Weather Stations






























Interactive Weather Map New forecast layout! Learn more

10-Day Weather Forecast

Advertisements
Track Severe Weather on mobile